CST,Max TemperatureF,Mean TemperatureF,Min TemperatureF,Max Dew PointF,MeanDew PointF,Min DewpointF,Max Humidity, Mean Humidity, Min Humidity, Max Sea Level PressureIn, Mean Sea Level PressureIn, Min Sea Level PressureIn, Max VisibilityMiles, Mean VisibilityMiles, Min VisibilityMiles, Max Wind SpeedMPH, Mean Wind SpeedMPH, Max Gust SpeedMPH,PrecipitationIn, CloudCover, Events, WindDirDegrees
2013-2-1,2,-9,-21,-5,-15,-27,82,72,62,30.38,30.17,30.02,10,6,1,17,7,21,0.05,6,Snow,163
2013-2-2,9,-3,-15,2,-6,-21,82,76,70,30.27,30.10,29.95,10,6,0,22,7,25,0.05,6,Snow,186
2013-2-3,8,3,-3,0,-3,-8,83,70,57,30.18,30.11,30.01,10,8,2,14,8,15,0.01,7,Snow,26
2013-2-4,20,9,-2,14,2,-8,80,72,63,30.14,29.87,29.58,10,8,2,25,10,29,0.02,7,Snow,173
2013-2-5,28,18,7,22,6,1,84,75,66,30.12,29.93,29.60,10,9,3,24,11,28,T,6,Snow,332
2013-2-6,29,20,10,21,14,3,81,74,67,30.13,29.99,29.84,10,9,2,21,9,24,T,8,Snow,116
2013-2-7,21,15,9,14,9,3,83,78,73,30.38,30.27,30.10,10,8,2,17,8,18,0.00,8,,1
2013-2-8,25,19,12,18,14,9,92,80,68,30.36,30.23,30.05,10,6,2,28,14,33,0.00,6,,156
2013-2-9,32,28,23,28,24,18,92,83,74,30.04,29.93,29.86,10,5,2,20,10,26,T,8,,153
2013-2-10,31,28,25,27,25,21,92,88,84,29.86,29.66,29.50,8,1,0,33,21,40,0.89,8,Fog-Snow,27
2013-2-11,25,19,12,20,16,8,88,78,68,30.05,29.89,29.68,10,5,1,35,18,39,0.03,7,Snow,320
2013-2-12,30,21,11,22,15,7,84,76,68,29.96,29.85,29.79,10,9,0,16,9,20,0.00,3,Snow,210
2013-2-13,32,23,14,27,21,12,92,82,72,29.81,29.68,29.58,10,4,0,15,6,18,0.13,7,Fog-Snow,343
2013-2-14,20,12,3,13,6,-2,88,78,67,30.33,30.14,29.84,10,10,7,22,12,24,0.00,5,,328
2013-2-15,12,2,-8,3,-3,-10,86,76,66,30.45,30.37,30.29,10,7,0,9,4,12,0.00,2,,272
2013-2-16,16,7,-3,10,4,-8,87,80,73,30.29,30.12,29.96,10,7,0,23,12,28,T,5,Fog-Snow,157
2013-2-17,31,23,14,27,18,8,84,78,72,29.99,29.70,29.48,10,7,4,31,20,38,T,7,,163
2013-2-18,30,15,-1,27,7,-8,88,80,72,30.19,29.81,29.47,5,1,0,40,27,49,0.04,8,Fog-Snow,331
2013-2-19,-1,-8,-15,-8,-14,-20,79,72,64,30.58,30.38,30.16,10,4,0,33,19,39,T,6,Snow,342
2013-2-20,7,-5,-18,-6,-14,-24,74,67,59,30.59,30.52,30.38,10,10,10,7,3,8,0.00,0,,8
2013-2-21,20,6,-8,7,-1,-13,83,67,51,30.48,30.38,30.22,10,10,10,12,5,15,0.00,0,,72
2013-2-22,19,15,10,13,9,3,88,76,64,30.20,30.04,29.92,10,9,0,15,7,17,T,7,Fog,336
2013-2-23,21,13,5,15,11,3,92,82,71,30.01,29.92,29.87,10,4,0,8,3,9,0.00,3,Fog,205
2013-2-24,22,12,1,16,5,-4,87,75,62,30.11,30.04,29.95,10,7,0,15,7,17,0.00,5,Fog,169
2013-2-25,28,19,10,20,17,5,92,80,68,30.13,30.07,30.00,10,4,0,18,9,23,0.00,5,Fog,185
2013-2-26,25,20,15,21,17,12,100,90,80,30.13,30.07,30.01,6,2,0,16,5,20,0.00,8,Fog-Snow,187
2013-2-27,28,18,8,22,11,3,92,84,75,30.23,30.14,30.08,10,5,0,26,13,31,T,5,Fog-Snow,332
2013-2-28,27,22,17,19,16,13,84,74,63,30.35,30.28,30.18,10,10,10,18,11,23,0.00,8,,359